createdAt,value
2019-04-26T00:00:02.476Z,1003.27
2019-04-26T00:01:02.455Z,1003.31
2019-04-26T00:02:02.457Z,1003.24
2019-04-26T00:03:02.425Z,1003.24
2019-04-26T00:04:02.419Z,1003.24
2019-04-26T00:05:02.428Z,1003.22
2019-04-26T00:06:02.396Z,1003.20
2019-04-26T00:07:02.382Z,1003.21
2019-04-26T00:08:02.369Z,1003.20
2019-04-26T00:09:02.369Z,1003.19
2019-04-26T00:10:02.379Z,1003.20
2019-04-26T00:11:02.367Z,1003.22
2019-04-26T00:12:02.332Z,1003.17
2019-04-26T00:13:02.322Z,1003.15
2019-04-26T00:14:02.319Z,1003.19
2019-04-26T00:15:02.361Z,1003.16
2019-04-26T00:16:02.282Z,1003.15
2019-04-26T00:17:02.273Z,1003.13
2019-04-26T00:18:02.260Z,1003.14
2019-04-26T00:19:02.277Z,1003.10
2019-04-26T00:20:02.262Z,1003.14
2019-04-26T00:21:02.226Z,1003.13
2019-04-26T00:22:02.219Z,1003.10
2019-04-26T00:23:02.208Z,1003.05
2019-04-26T00:24:02.193Z,1003.10
2019-04-26T00:25:02.204Z,1003.11
2019-04-26T00:26:02.161Z,1003.11
2019-04-26T00:27:02.158Z,1003.08
2019-04-26T00:28:02.147Z,1003.04
2019-04-26T00:29:02.136Z,1003.05
2019-04-26T00:30:02.148Z,1003.03
2019-04-26T00:31:02.125Z,1003.05
2019-04-26T00:32:02.099Z,1003.05
2019-04-26T00:33:02.107Z,1003.04
2019-04-26T00:34:02.081Z,1003.02
2019-04-26T00:35:02.111Z,1003.00
2019-04-26T00:36:02.058Z,1002.98
2019-04-26T00:37:02.041Z,1002.99
2019-04-26T00:38:02.042Z,1002.96
2019-04-26T00:39:02.024Z,1002.91
2019-04-26T00:40:02.013Z,1002.92
2019-04-26T00:41:02.039Z,1002.90
2019-04-26T00:42:01.992Z,1002.87
2019-04-26T00:43:01.983Z,1002.85
2019-04-26T00:44:01.967Z,1002.80
2019-04-26T00:45:01.977Z,1002.81
2019-04-26T00:46:01.972Z,1002.83
2019-04-26T00:47:01.948Z,1002.75
2019-04-26T00:48:01.938Z,1002.85
2019-04-26T00:49:02.007Z,1002.81
2019-04-26T00:50:01.932Z,1002.79
2019-04-26T00:51:01.918Z,1002.79
2019-04-26T00:52:01.902Z,1002.80
2019-04-26T00:53:01.880Z,1002.74
2019-04-26T00:54:01.863Z,1002.73
2019-04-26T00:55:01.861Z,1002.72
2019-04-26T00:56:01.853Z,1002.70
2019-04-26T00:57:01.835Z,1002.70
2019-04-26T00:58:01.822Z,1002.68
2019-04-26T00:59:01.855Z,1002.69
2019-04-26T01:00:01.807Z,1002.67
2019-04-26T01:01:01.812Z,1002.64
2019-04-26T01:02:01.786Z,1002.65
2019-04-26T01:03:01.766Z,1002.62
2019-04-26T01:04:01.760Z,1002.57
2019-04-26T01:05:01.771Z,1002.58
2019-04-26T01:06:01.752Z,1002.58
2019-04-26T01:07:01.719Z,1002.58
2019-04-26T01:08:01.717Z,1002.55
2019-04-26T01:09:01.702Z,1002.49
2019-04-26T01:10:01.695Z,1002.53
2019-04-26T01:11:01.707Z,1002.50
2019-04-26T01:12:01.665Z,1002.49
2019-04-26T01:13:01.656Z,1002.47
2019-04-26T01:14:01.648Z,1002.47
2019-04-26T01:15:01.635Z,1002.48
2019-04-26T01:16:01.643Z,1002.49
2019-04-26T01:17:01.626Z,1002.49
2019-04-26T01:18:01.608Z,1002.46
2019-04-26T01:19:01.601Z,1002.43
2019-04-26T01:20:01.589Z,1002.42
2019-04-26T01:21:01.576Z,1002.42
2019-04-26T01:22:01.571Z,1002.37
2019-04-26T01:23:01.549Z,1002.42
2019-04-26T01:24:01.532Z,1002.38
2019-04-26T01:25:01.533Z,1002.36
2019-04-26T01:26:01.531Z,1002.41
2019-04-26T01:27:01.507Z,1002.38
2019-04-26T01:28:01.489Z,1002.35
2019-04-26T01:29:01.480Z,1002.35
2019-04-26T01:30:01.471Z,1002.31
2019-04-26T01:31:01.474Z,1002.34
2019-04-26T01:32:01.463Z,1002.32
2019-04-26T01:33:01.451Z,1002.32
2019-04-26T01:34:01.425Z,1002.30
2019-04-26T01:35:01.418Z,1002.29
2019-04-26T01:36:12.319Z,1002.28
2019-04-26T01:37:02.403Z,1002.27
2019-04-26T01:38:01.384Z,1002.26
2019-04-26T01:39:01.385Z,1002.23
2019-04-26T01:40:01.367Z,1002.20
2019-04-26T01:41:01.371Z,1002.25
2019-04-26T01:42:01.339Z,1002.20
2019-04-26T01:43:01.330Z,1002.15
2019-04-26T01:44:01.332Z,1002.19
2019-04-26T01:45:01.313Z,1002.20
2019-04-26T01:46:01.305Z,1002.19
2019-04-26T01:47:01.289Z,1002.15
2019-04-26T01:48:01.274Z,1002.18
2019-04-26T01:49:01.261Z,1002.19
2019-04-26T01:50:01.261Z,1002.19
2019-04-26T01:51:01.246Z,1002.12
2019-04-26T01:52:01.244Z,1002.17
2019-04-26T01:53:01.215Z,1002.13
2019-04-26T01:54:01.211Z,1002.18
2019-04-26T01:55:01.213Z,1002.18
2019-04-26T01:56:01.190Z,1002.14
2019-04-26T01:57:01.189Z,1002.17
2019-04-26T01:58:01.156Z,1002.09
2019-04-26T01:59:01.156Z,1002.10
2019-04-26T02:00:01.137Z,1002.11
2019-04-26T02:01:01.176Z,1002.13
2019-04-26T02:02:01.157Z,1002.10
2019-04-26T02:03:01.107Z,1002.08
2019-04-26T02:04:01.090Z,1002.08
2019-04-26T02:05:01.097Z,1002.10
2019-04-26T02:06:01.077Z,1002.10
2019-04-26T02:07:01.096Z,1002.05
2019-04-26T02:08:01.091Z,1002.08
2019-04-26T02:09:01.050Z,1002.07
2019-04-26T02:10:01.033Z,1002.05
2019-04-26T02:11:01.023Z,1002.03
2019-04-26T02:12:01.055Z,1002.01
2019-04-26T02:13:01.011Z,1002.04
2019-04-26T02:14:00.985Z,1002.02
2019-04-26T02:15:00.983Z,1002.06
2019-04-26T02:16:00.966Z,1001.97
2019-04-26T02:17:00.991Z,1001.99
2019-04-26T02:18:00.949Z,1001.97
2019-04-26T02:19:00.935Z,1001.91
2019-04-26T02:20:00.966Z,1001.90
2019-04-26T02:21:00.912Z,1001.93
2019-04-26T02:22:00.929Z,1001.86
2019-04-26T02:23:00.898Z,1001.88
2019-04-26T02:24:00.891Z,1001.88
2019-04-26T02:25:00.868Z,1001.82
2019-04-26T02:26:00.870Z,1001.86
2019-04-26T02:27:00.866Z,1001.86
2019-04-26T02:28:00.847Z,1001.84
2019-04-26T02:29:00.848Z,1001.85
2019-04-26T02:30:00.825Z,1001.83
2019-04-26T02:31:00.809Z,1001.83
2019-04-26T02:32:00.830Z,1001.83
2019-04-26T02:33:00.778Z,1001.78
2019-04-26T02:34:00.773Z,1001.75
2019-04-26T02:35:00.760Z,1001.74
2019-04-26T02:36:00.748Z,1001.77
2019-04-26T02:37:00.757Z,1001.75
2019-04-26T02:38:00.747Z,1001.73
2019-04-26T02:39:00.719Z,1001.73
2019-04-26T02:40:00.704Z,1001.70
2019-04-26T02:41:00.692Z,1001.68
2019-04-26T02:42:00.760Z,1001.70
2019-04-26T02:43:00.679Z,1001.72
2019-04-26T02:44:00.654Z,1001.68
2019-04-26T02:45:00.654Z,1001.67
2019-04-26T02:46:00.632Z,1001.66
2019-04-26T02:47:00.643Z,1001.68
2019-04-26T02:48:00.611Z,1001.65
2019-04-26T02:49:00.601Z,1001.61
2019-04-26T02:50:00.608Z,1001.62
2019-04-26T02:51:00.582Z,1001.61
2019-04-26T02:52:00.593Z,1001.65
2019-04-26T02:53:00.562Z,1001.56
2019-04-26T02:54:00.547Z,1001.58
2019-04-26T02:55:00.547Z,1001.59
2019-04-26T02:56:00.523Z,1001.60
2019-04-26T02:57:00.548Z,1001.62
2019-04-26T02:58:00.544Z,1001.58
2019-04-26T02:59:00.508Z,1001.61
2019-04-26T03:00:00.493Z,1001.58
2019-04-26T03:01:00.477Z,1001.67
2019-04-26T03:02:00.462Z,1001.64
2019-04-26T03:03:00.472Z,1001.71
2019-04-26T03:04:00.443Z,1001.64
2019-04-26T03:05:00.442Z,1001.66
2019-04-26T03:06:00.423Z,1001.64
2019-04-26T03:07:03.460Z,1001.64
2019-04-26T03:08:00.417Z,1001.66
2019-04-26T03:09:00.384Z,1001.63
2019-04-26T03:10:00.376Z,1001.63
2019-04-26T03:11:00.361Z,1001.60
2019-04-26T03:12:00.354Z,1001.57
2019-04-26T03:13:00.359Z,1001.61
2019-04-26T03:14:00.365Z,1001.62
2019-04-26T03:15:13.217Z,1001.58
2019-04-26T03:16:01.309Z,1001.55
2019-04-26T03:17:00.324Z,1001.57
2019-04-26T03:18:00.305Z,1001.55
2019-04-26T03:19:00.273Z,1001.53
2019-04-26T03:20:00.275Z,1001.52
2019-04-26T03:21:00.256Z,1001.51
2019-04-26T03:22:00.243Z,1001.47
2019-04-26T03:23:00.267Z,1001.47
2019-04-26T03:24:00.240Z,1001.49
2019-04-26T03:25:00.219Z,1001.50
2019-04-26T03:26:00.200Z,1001.52
2019-04-26T03:27:00.200Z,1001.47
2019-04-26T03:28:00.208Z,1001.52
2019-04-26T03:29:00.165Z,1001.49
2019-04-26T03:30:18.845Z,1001.51
2019-04-26T03:31:01.209Z,1001.53
2019-04-26T03:32:00.140Z,1001.57
2019-04-26T03:33:00.163Z,1001.54
2019-04-26T03:34:00.235Z,1001.57
2019-04-26T03:35:00.257Z,1001.57
2019-04-26T03:36:00.097Z,1001.54
2019-04-26T03:37:00.078Z,1001.50
2019-04-26T03:38:00.094Z,1001.55
2019-04-26T03:39:00.073Z,1001.51
2019-04-26T03:40:00.053Z,1001.50
2019-04-26T03:41:00.026Z,1001.53
2019-04-26T03:42:00.034Z,1001.54
2019-04-26T03:43:00.071Z,1001.55
2019-04-26T03:44:00.004Z,1001.54
2019-04-26T03:44:59.989Z,1001.55
2019-04-26T03:45:59.975Z,1001.53
2019-04-26T03:46:59.977Z,1001.57
2019-04-26T03:47:59.973Z,1001.56
2019-04-26T03:48:59.943Z,1001.59
2019-04-26T03:49:59.946Z,1001.57
2019-04-26T03:50:59.948Z,1001.60
2019-04-26T03:51:59.921Z,1001.53
2019-04-26T03:52:59.929Z,1001.57
2019-04-26T03:53:59.894Z,1001.51
2019-04-26T03:54:59.890Z,1001.56
2019-04-26T03:55:59.869Z,1001.52
2019-04-26T03:56:59.876Z,1001.52
2019-04-26T03:57:59.873Z,1001.53
2019-04-26T03:58:59.837Z,1001.52
2019-04-26T03:59:59.822Z,1001.52
2019-04-26T04:00:59.831Z,1001.54
2019-04-26T04:01:59.810Z,1001.52
2019-04-26T04:02:59.808Z,1001.53
2019-04-26T04:03:59.804Z,1001.52
2019-04-26T04:04:59.779Z,1001.49
2019-04-26T04:05:59.759Z,1001.52
2019-04-26T04:07:04.903Z,1001.51
2019-04-26T04:08:00.746Z,1001.53
2019-04-26T04:08:59.757Z,1001.56
2019-04-26T04:09:59.731Z,1001.54
2019-04-26T04:10:59.729Z,1001.57
2019-04-26T04:12:10.725Z,1001.55
2019-04-26T04:13:00.685Z,1001.54
2019-04-26T04:13:59.793Z,1001.54
2019-04-26T04:14:59.663Z,1001.58
2019-04-26T04:15:59.670Z,1001.58
2019-04-26T04:16:59.641Z,1001.64
2019-04-26T04:17:59.635Z,1001.61
2019-04-26T04:18:59.640Z,1001.61
2019-04-26T04:19:59.614Z,1001.58
2019-04-26T04:20:59.599Z,1001.64
2019-04-26T04:21:59.586Z,1001.62
2019-04-26T04:22:59.574Z,1001.58
2019-04-26T04:23:59.577Z,1001.60
2019-04-26T04:24:59.574Z,1001.61
2019-04-26T04:25:59.540Z,1001.59
2019-04-26T04:26:59.537Z,1001.58
2019-04-26T04:28:03.138Z,1001.60
2019-04-26T04:28:59.535Z,1001.60
2019-04-26T04:29:59.505Z,1001.58
2019-04-26T04:30:59.484Z,1001.61
2019-04-26T04:31:59.501Z,1001.58
2019-04-26T04:32:59.461Z,1001.57
2019-04-26T04:33:59.474Z,1001.51
2019-04-26T04:34:59.454Z,1001.60
2019-04-26T04:35:59.441Z,1001.51
2019-04-26T04:36:59.420Z,1001.58
2019-04-26T04:38:08.712Z,1001.58
2019-04-26T04:39:11.163Z,1001.53
2019-04-26T04:40:00.421Z,1001.52
2019-04-26T04:40:59.387Z,1001.56
2019-04-26T04:41:59.366Z,1001.50
2019-04-26T04:42:59.409Z,1001.56
2019-04-26T04:43:59.381Z,1001.57
2019-04-26T04:44:59.341Z,1001.48
2019-04-26T04:45:59.376Z,1001.52
2019-04-26T04:46:59.330Z,1001.50
2019-04-26T04:47:59.301Z,1001.55
2019-04-26T04:48:59.316Z,1001.58
2019-04-26T04:49:59.309Z,1001.55
2019-04-26T04:50:59.260Z,1001.58
2019-04-26T04:51:59.261Z,1001.61
2019-04-26T04:52:59.264Z,1001.56
2019-04-26T04:53:59.262Z,1001.63
2019-04-26T04:55:07.224Z,1001.61
2019-04-26T04:56:00.244Z,1001.62
2019-04-26T04:56:59.221Z,1001.60
2019-04-26T04:57:59.202Z,1001.65
2019-04-26T04:58:59.420Z,1001.65
2019-04-26T04:59:59.293Z,1001.64
2019-04-26T05:00:59.281Z,1001.68
2019-04-26T05:01:59.145Z,1001.68
2019-04-26T05:02:59.170Z,1001.74
2019-04-26T05:03:59.171Z,1001.70
2019-04-26T05:04:59.158Z,1001.72
2019-04-26T05:06:07.413Z,1001.71
2019-04-26T05:07:00.156Z,1001.71
2019-04-26T05:08:06.480Z,1001.71
2019-04-26T05:09:00.100Z,1001.77
2019-04-26T05:09:59.086Z,1001.69
2019-04-26T05:10:59.062Z,1001.71
2019-04-26T05:11:59.039Z,1001.67
2019-04-26T05:12:59.026Z,1001.71
2019-04-26T05:13:59.052Z,1001.63
2019-04-26T05:14:59.122Z,1001.67
2019-04-26T05:15:59.009Z,1001.68
2019-04-26T05:16:58.986Z,1001.68
2019-04-26T05:17:58.994Z,1001.69
2019-04-26T05:18:58.969Z,1001.69
2019-04-26T05:19:59.218Z,1001.68
2019-04-26T05:20:58.999Z,1001.67
2019-04-26T05:21:58.979Z,1001.68
2019-04-26T05:22:58.932Z,1001.67
2019-04-26T05:23:58.940Z,1001.67
2019-04-26T05:24:58.946Z,1001.70
2019-04-26T05:25:58.882Z,1001.66
2019-04-26T05:26:58.900Z,1001.69
2019-04-26T05:27:58.890Z,1001.67
2019-04-26T05:28:58.899Z,1001.64
2019-04-26T05:29:58.910Z,1001.66
2019-04-26T05:30:58.832Z,1001.63
2019-04-26T05:31:58.822Z,1001.58
2019-04-26T05:32:58.802Z,1001.64
2019-04-26T05:33:58.861Z,1001.60
2019-04-26T05:34:58.835Z,1001.61
2019-04-26T05:35:58.814Z,1001.53
2019-04-26T05:36:58.765Z,1001.54
2019-04-26T05:37:58.758Z,1001.57
2019-04-26T05:38:58.779Z,1001.57
2019-04-26T05:40:01.699Z,1001.52
2019-04-26T05:40:58.752Z,1001.55
2019-04-26T05:41:58.741Z,1001.53
2019-04-26T05:42:58.702Z,1001.56
2019-04-26T05:43:58.700Z,1001.57
2019-04-26T05:44:58.964Z,1001.54
2019-04-26T05:45:58.677Z,1001.56
2019-04-26T05:46:58.713Z,1001.59
2019-04-26T05:48:08.402Z,1001.59
2019-04-26T05:48:59.633Z,1001.56
2019-04-26T05:49:58.657Z,1001.54
2019-04-26T05:50:58.725Z,1001.55
2019-04-26T05:51:58.645Z,1001.58
2019-04-26T05:52:59.753Z,1001.54
2019-04-26T05:53:58.595Z,1001.58
2019-04-26T05:54:58.651Z,1001.57
2019-04-26T05:55:58.555Z,1001.54
2019-04-26T05:56:58.603Z,1001.58
2019-04-26T05:57:58.655Z,1001.57
2019-04-26T05:59:01.418Z,1001.60
2019-04-26T05:59:58.901Z,1001.53
2019-04-26T06:00:58.550Z,1001.56
2019-04-26T06:01:59.061Z,1001.58
2019-04-26T06:02:58.987Z,1001.51
2019-04-26T06:03:58.470Z,1001.57
2019-04-26T06:04:59.236Z,1001.56
2019-04-26T06:05:58.565Z,1001.59
2019-04-26T06:06:59.332Z,1001.63
2019-04-26T06:07:58.613Z,1001.69
2019-04-26T06:08:59.549Z,1001.72
2019-04-26T06:09:58.629Z,1001.74
2019-04-26T06:10:58.438Z,1001.77
2019-04-26T06:11:58.785Z,1001.80
2019-04-26T06:12:58.777Z,1001.76
2019-04-26T06:13:58.367Z,1001.71
2019-04-26T06:14:58.912Z,1001.68
2019-04-26T06:15:58.363Z,1001.63
2019-04-26T06:16:59.228Z,1001.58
2019-04-26T06:17:58.321Z,1001.60
2019-04-26T06:18:58.308Z,1001.59
2019-04-26T06:19:59.366Z,1001.58
2019-04-26T06:20:58.298Z,1001.59
2019-04-26T06:21:58.289Z,1001.63
2019-04-26T06:22:59.674Z,1001.64
2019-04-26T06:23:58.258Z,1001.69
2019-04-26T06:24:58.274Z,1001.68
2019-04-26T06:26:00.913Z,1001.70
2019-04-26T06:27:10.326Z,1001.71
2019-04-26T06:27:59.231Z,1001.63
2019-04-26T06:28:59.025Z,1001.68
2019-04-26T06:29:58.781Z,1001.59
2019-04-26T06:30:59.309Z,1001.58
2019-04-26T06:31:58.158Z,1001.58
2019-04-26T06:33:04.026Z,1001.58
2019-04-26T06:33:59.161Z,1001.62
2019-04-26T06:34:59.291Z,1001.60
2019-04-26T06:35:59.247Z,1001.59
2019-04-26T06:36:58.108Z,1001.59
2019-04-26T06:37:58.093Z,1001.60
2019-04-26T06:38:58.102Z,1001.59
2019-04-26T06:39:58.070Z,1001.62
2019-04-26T06:40:58.223Z,1001.63
2019-04-26T06:41:58.492Z,1001.62
2019-04-26T06:42:58.313Z,1001.59
2019-04-26T06:43:58.307Z,1001.64
2019-04-26T06:44:58.332Z,1001.58
2019-04-26T06:45:58.601Z,1001.55
2019-04-26T06:46:58.006Z,1001.60
2019-04-26T06:47:58.819Z,1001.60
2019-04-26T06:48:58.922Z,1001.55
2019-04-26T06:49:58.006Z,1001.54
2019-04-26T06:50:58.494Z,1001.57
2019-04-26T06:51:58.474Z,1001.55
2019-04-26T06:52:58.156Z,1001.49
2019-04-26T06:53:58.621Z,1001.47
2019-04-26T06:54:57.903Z,1001.45
2019-04-26T06:55:59.065Z,1001.43
2019-04-26T06:57:07.962Z,1001.45
2019-04-26T06:57:59.949Z,1001.42
2019-04-26T06:58:57.951Z,1001.45
2019-04-26T06:59:57.852Z,1001.43
2019-04-26T07:00:58.968Z,1001.44
2019-04-26T07:01:59.048Z,1001.42
2019-04-26T07:02:58.906Z,1001.45
2019-04-26T07:03:58.329Z,1001.40
2019-04-26T07:04:59.222Z,1001.42
2019-04-26T07:05:58.826Z,1001.42
2019-04-26T07:06:58.229Z,1001.40
2019-04-26T07:07:57.765Z,1001.37
2019-04-26T07:08:59.397Z,1001.35
2019-04-26T07:09:59.113Z,1001.37
2019-04-26T07:10:59.125Z,1001.39
2019-04-26T07:11:59.360Z,1001.37
2019-04-26T07:12:58.698Z,1001.37
2019-04-26T07:13:59.160Z,1001.37
2019-04-26T07:14:57.713Z,1001.43
2019-04-26T07:15:57.731Z,1001.38
2019-04-26T07:16:58.217Z,1001.37
2019-04-26T07:17:57.648Z,1001.38
2019-04-26T07:18:57.634Z,1001.40
2019-04-26T07:19:59.664Z,1001.36
2019-04-26T07:20:57.650Z,1001.31
2019-04-26T07:21:57.612Z,1001.23
2019-04-26T07:22:57.588Z,1001.26
2019-04-26T07:23:57.598Z,1001.31
2019-04-26T07:24:57.588Z,1001.22
2019-04-26T07:25:57.582Z,1001.23
2019-04-26T07:26:57.551Z,1001.24
2019-04-26T07:28:03.669Z,1001.20
2019-04-26T07:28:58.546Z,1001.25
2019-04-26T07:29:57.550Z,1001.17
2019-04-26T07:30:57.543Z,1001.15
2019-04-26T07:31:57.503Z,1001.21
2019-04-26T07:32:57.499Z,1001.22
2019-04-26T07:33:57.493Z,1001.22
2019-04-26T07:34:57.465Z,1001.21
2019-04-26T07:35:58.954Z,1001.26
2019-04-26T07:36:57.457Z,1001.25
2019-04-26T07:37:57.427Z,1001.22
2019-04-26T07:39:09.046Z,1001.20
2019-04-26T07:39:58.423Z,1001.25
2019-04-26T07:40:57.409Z,1001.26
2019-04-26T07:41:57.408Z,1001.26
2019-04-26T07:42:57.386Z,1001.29
2019-04-26T07:43:57.419Z,1001.29
2019-04-26T07:44:57.369Z,1001.25
2019-04-26T07:45:57.569Z,1001.26
2019-04-26T07:46:57.358Z,1001.26
2019-04-26T07:47:57.366Z,1001.28
2019-04-26T07:48:57.320Z,1001.26
2019-04-26T07:49:57.298Z,1001.27
2019-04-26T07:50:57.325Z,1001.26
2019-04-26T07:51:57.309Z,1001.28
2019-04-26T07:52:57.322Z,1001.31
2019-04-26T07:53:57.548Z,1001.31
2019-04-26T07:54:57.276Z,1001.33
2019-04-26T07:55:57.336Z,1001.30
2019-04-26T07:56:57.234Z,1001.33
2019-04-26T07:57:57.205Z,1001.30
2019-04-26T07:58:57.213Z,1001.34
2019-04-26T07:59:57.198Z,1001.34
2019-04-26T08:00:57.207Z,1001.29
2019-04-26T08:01:57.223Z,1001.34
2019-04-26T08:02:57.150Z,1001.30
2019-04-26T08:03:57.166Z,1001.29
2019-04-26T08:04:57.148Z,1001.30
2019-04-26T08:05:57.125Z,1001.28
2019-04-26T08:06:57.134Z,1001.26
2019-04-26T08:07:57.101Z,1001.28
2019-04-26T08:08:57.088Z,1001.27
2019-04-26T08:09:59.935Z,1001.28
2019-04-26T08:10:57.118Z,1001.26
2019-04-26T08:11:57.165Z,1001.28
2019-04-26T08:12:57.041Z,1001.26
2019-04-26T08:13:57.093Z,1001.27
2019-04-26T08:14:57.033Z,1001.26
2019-04-26T08:15:57.021Z,1001.22
2019-04-26T08:16:57.055Z,1001.26
2019-04-26T08:17:56.983Z,1001.32
2019-04-26T08:18:56.978Z,1001.30
2019-04-26T08:19:57.567Z,1001.27
2019-04-26T08:20:56.949Z,1001.26
2019-04-26T08:22:11.564Z,1001.26
2019-04-26T08:22:57.929Z,1001.27
2019-04-26T08:23:57.851Z,1001.26
2019-04-26T08:24:57.025Z,1001.29
2019-04-26T08:25:56.897Z,1001.25
2019-04-26T08:27:08.284Z,1001.21
2019-04-26T08:27:57.929Z,1001.15
2019-04-26T08:29:00.541Z,1001.09
2019-04-26T08:29:56.841Z,1001.09
2019-04-26T08:30:56.831Z,1001.07
2019-04-26T08:31:57.909Z,1001.08
2019-04-26T08:32:56.832Z,1001.06
2019-04-26T08:33:56.839Z,1001.10
2019-04-26T08:34:56.821Z,1001.08
2019-04-26T08:35:56.799Z,1001.07
2019-04-26T08:36:57.293Z,1001.09
2019-04-26T08:37:57.457Z,1001.11
2019-04-26T08:38:56.765Z,1001.13
2019-04-26T08:39:56.756Z,1001.09
2019-04-26T08:41:00.510Z,1001.13
2019-04-26T08:41:57.728Z,1001.20
2019-04-26T08:42:57.366Z,1001.19
2019-04-26T08:43:59.771Z,1001.14
2019-04-26T08:44:57.683Z,1001.13
2019-04-26T08:46:03.087Z,1001.14
2019-04-26T08:46:57.673Z,1001.09
2019-04-26T08:47:56.667Z,1001.11
2019-04-26T08:48:58.153Z,1001.12
2019-04-26T08:49:56.631Z,1001.12
2019-04-26T08:50:56.631Z,1001.14
2019-04-26T08:51:57.499Z,1001.10
2019-04-26T08:52:57.863Z,1001.16
2019-04-26T08:53:56.585Z,1001.13
2019-04-26T08:54:56.575Z,1001.19
2019-04-26T08:55:56.565Z,1001.15
2019-04-26T08:56:56.589Z,1001.16
2019-04-26T08:57:56.571Z,1001.20
2019-04-26T08:58:56.526Z,1001.22
2019-04-26T08:59:56.514Z,1001.19
2019-04-26T09:00:56.512Z,1001.20
2019-04-26T09:01:56.522Z,1001.19
2019-04-26T09:02:56.489Z,1001.19
2019-04-26T09:03:56.478Z,1001.17
2019-04-26T09:04:56.489Z,1001.16
2019-04-26T09:05:56.455Z,1001.15
2019-04-26T09:06:56.481Z,1001.15
2019-04-26T09:07:57.636Z,1001.17
2019-04-26T09:08:56.419Z,1001.18
2019-04-26T09:09:57.482Z,1001.16
2019-04-26T09:10:56.429Z,1001.17
2019-04-26T09:11:59.788Z,1001.12
2019-04-26T09:12:56.376Z,1001.16
2019-04-26T09:13:56.373Z,1001.19
2019-04-26T09:14:56.389Z,1001.17
2019-04-26T09:15:56.362Z,1001.19
2019-04-26T09:16:56.372Z,1001.16
2019-04-26T09:17:56.322Z,1001.20
2019-04-26T09:18:59.650Z,1001.15
2019-04-26T09:19:58.115Z,1001.18
2019-04-26T09:20:56.288Z,1001.13
2019-04-26T09:21:59.059Z,1001.10
2019-04-26T09:23:03.733Z,1001.11
2019-04-26T09:23:57.261Z,1001.09
2019-04-26T09:24:59.359Z,1001.10
2019-04-26T09:25:59.449Z,1001.13
2019-04-26T09:26:56.283Z,1001.12
2019-04-26T09:27:58.884Z,1001.09
2019-04-26T09:28:56.504Z,1001.06
2019-04-26T09:29:56.190Z,1001.04
2019-04-26T09:30:56.189Z,1001.05
2019-04-26T09:31:56.196Z,1001.05
2019-04-26T09:32:58.331Z,1001.04
2019-04-26T09:33:57.147Z,1001.04
2019-04-26T09:34:56.167Z,1001.01
2019-04-26T09:35:56.122Z,1001.00
2019-04-26T09:36:56.148Z,1000.99
2019-04-26T09:37:56.107Z,1000.98
2019-04-26T09:38:56.093Z,1000.99
2019-04-26T09:39:56.092Z,1000.99
2019-04-26T09:40:57.198Z,1000.99
2019-04-26T09:41:56.094Z,1001.03
2019-04-26T09:42:56.061Z,1001.01
2019-04-26T09:43:58.771Z,1000.97
2019-04-26T09:44:56.952Z,1000.97
2019-04-26T09:45:56.046Z,1000.97
2019-04-26T09:46:56.029Z,1000.95
2019-04-26T09:47:56.006Z,1000.97
2019-04-26T09:48:55.993Z,1000.95
2019-04-26T09:49:55.978Z,1000.92
2019-04-26T09:50:55.983Z,1000.90
2019-04-26T09:51:55.972Z,1000.92
2019-04-26T09:52:58.127Z,1000.88
2019-04-26T09:53:55.934Z,1000.92
2019-04-26T09:54:55.922Z,1000.94
2019-04-26T09:55:55.910Z,1000.96
2019-04-26T09:56:55.922Z,1000.94
2019-04-26T09:57:56.995Z,1000.92
2019-04-26T09:58:55.920Z,1000.91
2019-04-26T09:59:55.870Z,1000.98
2019-04-26T10:00:55.857Z,1000.94
2019-04-26T10:01:59.350Z,1001.01
2019-04-26T10:02:55.838Z,1001.00
2019-04-26T10:03:55.825Z,1000.99
2019-04-26T10:04:55.824Z,1000.95
2019-04-26T10:05:57.012Z,1000.97
2019-04-26T10:06:55.804Z,1001.01
2019-04-26T10:07:55.784Z,1001.00
2019-04-26T10:08:55.763Z,1000.99
2019-04-26T10:09:57.145Z,1000.98
2019-04-26T10:10:55.844Z,1000.96
2019-04-26T10:11:55.775Z,1001.01
2019-04-26T10:12:55.718Z,1000.95
2019-04-26T10:13:55.717Z,1000.95
2019-04-26T10:14:55.697Z,1000.93
2019-04-26T10:15:58.304Z,1000.99
2019-04-26T10:16:56.714Z,1000.96
2019-04-26T10:17:55.663Z,1000.96
2019-04-26T10:18:58.250Z,1000.97
2019-04-26T10:19:55.641Z,1001.01
2019-04-26T10:20:55.638Z,1000.98
2019-04-26T10:21:55.668Z,1000.99
2019-04-26T10:22:55.778Z,1001.02
2019-04-26T10:23:55.769Z,1000.99
2019-04-26T10:24:55.789Z,1001.02
2019-04-26T10:25:55.639Z,1001.03
2019-04-26T10:26:55.598Z,1001.01
2019-04-26T10:27:55.596Z,1001.02
2019-04-26T10:28:55.540Z,1001.05
2019-04-26T10:30:04.558Z,1001.00
2019-04-26T10:30:56.523Z,1001.05
2019-04-26T10:31:55.541Z,1001.04
2019-04-26T10:32:58.264Z,1001.08
2019-04-26T10:33:56.500Z,1000.99
2019-04-26T10:34:55.480Z,1000.95
2019-04-26T10:35:56.597Z,1000.99
2019-04-26T10:36:57.005Z,1000.97
2019-04-26T10:37:55.445Z,1000.95
2019-04-26T10:38:58.493Z,1000.92
2019-04-26T10:39:55.437Z,1000.91
2019-04-26T10:40:55.477Z,1000.91
2019-04-26T10:41:55.417Z,1000.93
2019-04-26T10:42:55.405Z,1000.96
2019-04-26T10:43:55.380Z,1000.92
2019-04-26T10:44:55.375Z,1000.95
2019-04-26T10:45:55.367Z,1000.91
2019-04-26T10:46:55.903Z,1000.88
2019-04-26T10:47:55.348Z,1000.92
2019-04-26T10:49:02.676Z,1000.92
2019-04-26T10:49:58.270Z,1000.96
2019-04-26T10:50:55.328Z,1000.92
2019-04-26T10:51:55.358Z,1000.95
2019-04-26T10:52:55.722Z,1000.94
2019-04-26T10:53:55.302Z,1000.92
2019-04-26T10:54:55.265Z,1000.94
2019-04-26T10:55:55.263Z,1000.95
2019-04-26T10:56:55.281Z,1000.91
2019-04-26T10:57:55.418Z,1000.88
2019-04-26T10:58:55.241Z,1000.92
2019-04-26T10:59:55.264Z,1000.91
2019-04-26T11:00:55.201Z,1000.92
2019-04-26T11:01:55.262Z,1000.90
2019-04-26T11:02:55.246Z,1000.85
2019-04-26T11:03:55.160Z,1000.89
2019-04-26T11:04:55.832Z,1000.84
2019-04-26T11:05:55.398Z,1000.91
2019-04-26T11:06:58.116Z,1000.93
2019-04-26T11:07:56.122Z,1000.90
2019-04-26T11:08:55.104Z,1000.93
2019-04-26T11:09:55.112Z,1000.85
2019-04-26T11:10:55.091Z,1000.90
2019-04-26T11:11:55.097Z,1000.90
2019-04-26T11:12:55.210Z,1000.87
2019-04-26T11:13:57.440Z,1000.85
2019-04-26T11:14:56.997Z,1000.86
2019-04-26T11:15:55.035Z,1000.81
2019-04-26T11:16:55.049Z,1000.83
2019-04-26T11:17:55.020Z,1000.86
2019-04-26T11:18:57.214Z,1000.81
2019-04-26T11:19:55.981Z,1000.86
2019-04-26T11:20:54.975Z,1000.81
2019-04-26T11:21:56.020Z,1000.84
2019-04-26T11:22:54.981Z,1000.82
2019-04-26T11:23:54.953Z,1000.72
2019-04-26T11:24:55.101Z,1000.75
2019-04-26T11:25:57.859Z,1000.76
2019-04-26T11:26:55.955Z,1000.74
2019-04-26T11:27:54.923Z,1000.79
2019-04-26T11:28:55.766Z,1000.79
2019-04-26T11:29:54.905Z,1000.73
2019-04-26T11:30:57.377Z,1000.84
2019-04-26T11:31:58.388Z,1000.76
2019-04-26T11:32:55.842Z,1000.79
2019-04-26T11:34:04.664Z,1000.76
2019-04-26T11:34:58.781Z,1000.76
2019-04-26T11:35:54.836Z,1000.73
2019-04-26T11:36:54.848Z,1000.69
2019-04-26T11:37:56.648Z,1000.71
2019-04-26T11:38:54.813Z,1000.70
2019-04-26T11:39:54.780Z,1000.73
2019-04-26T11:41:05.775Z,1000.70
2019-04-26T11:41:55.783Z,1000.69
2019-04-26T11:42:54.786Z,1000.72
2019-04-26T11:43:54.786Z,1000.77
2019-04-26T11:45:05.669Z,1000.74
2019-04-26T11:46:04.254Z,1000.73
2019-04-26T11:46:59.410Z,1000.71
2019-04-26T11:47:56.622Z,1000.74
2019-04-26T11:48:59.182Z,1000.71
2019-04-26T11:49:54.713Z,1000.70
2019-04-26T11:50:54.654Z,1000.77
2019-04-26T11:51:54.663Z,1000.76
2019-04-26T11:52:54.632Z,1000.71
2019-04-26T11:53:54.629Z,1000.76
2019-04-26T11:54:55.221Z,1000.76
2019-04-26T11:55:54.644Z,1000.76
2019-04-26T11:56:54.645Z,1000.74
2019-04-26T11:57:54.606Z,1000.76
2019-04-26T11:58:56.809Z,1000.71
2019-04-26T11:59:54.580Z,1000.73
2019-04-26T12:00:54.558Z,1000.69
2019-04-26T12:01:54.597Z,1000.71
2019-04-26T12:02:54.601Z,1000.72
2019-04-26T12:03:55.620Z,1000.74
2019-04-26T12:04:55.118Z,1000.75